Time;durP1;ratioP1;P1;durP2;ratioP2;P2;SDS_P1;SDS_P2;PMS_P1;PMS_P2;Temp;Humidity;BMP_temperature;BMP_pressure;BME280_temperature;BME280_humidity;BME280_pressure;Samples;Min_cycle;Max_cycle;Signal;HPM_P1;HPM_P2
2023/12/18 00:00:48;;;;;;;13.55;6.47;;;;;;;6.76;100.00;102333.78;8280312;28;20583;-52
2023/12/18 00:04:48;;;;;;;12.77;7.25;;;;;;;6.41;100.00;102343.50;8279876;28;20040;-53
2023/12/18 00:08:49;;;;;;;15.10;7.03;;;;;;;6.48;100.00;102339.59;8275567;28;20057;-54
2023/12/18 00:12:49;;;;;;;11.82;6.63;;;;;;;6.40;100.00;102341.72;8277578;28;20080;-54
2023/12/18 00:16:50;;;;;;;12.60;7.25;;;;;;;6.35;100.00;102341.09;8278028;28;20049;-55
2023/12/18 00:20:52;;;;;;;14.27;7.20;;;;;;;6.40;100.00;102335.50;8271934;28;20486;-54
2023/12/18 00:24:52;;;;;;;18.85;8.75;;;;;;;5.95;100.00;102331.22;8220539;28;20059;-54
2023/12/18 00:28:53;;;;;;;12.90;7.70;;;;;;;6.27;100.00;102335.19;8225958;28;20060;-55
2023/12/18 00:32:53;;;;;;;13.88;7.93;;;;;;;5.84;100.00;102336.22;8223256;28;20273;-55
2023/12/18 00:36:54;;;;;;;14.75;7.28;;;;;;;6.07;100.00;102324.44;8223592;28;20111;-54
2023/12/18 00:40:54;;;;;;;19.08;7.38;;;;;;;5.85;100.00;102332.56;8219341;28;20034;-54
2023/12/18 00:44:54;;;;;;;15.18;7.38;;;;;;;5.94;100.00;102323.25;8220551;28;20048;-53
2023/12/18 00:48:55;;;;;;;13.63;8.07;;;;;;;6.02;100.00;102323.78;8222318;28;20133;-57
2023/12/18 00:52:55;;;;;;;15.65;8.30;;;;;;;6.04;100.00;102324.59;8233362;28;20112;-54
2023/12/18 00:56:56;;;;;;;14.75;7.55;;;;;;;5.97;100.00;102323.09;8221925;28;20034;-55
2023/12/18 01:00:57;;;;;;;13.00;7.15;;;;;;;5.92;100.00;102330.50;8222612;28;20046;-55
2023/12/18 01:04:57;;;;;;;14.85;7.70;;;;;;;5.93;100.00;102337.63;8221822;28;20240;-55
2023/12/18 01:08:57;;;;;;;15.65;7.72;;;;;;;5.55;100.00;102335.69;8219722;28;20074;-55
2023/12/18 01:12:58;;;;;;;13.50;7.32;;;;;;;5.53;100.00;102332.16;8247243;28;20507;-55
2023/12/18 01:16:58;;;;;;;14.40;7.95;;;;;;;5.39;100.00;102326.50;8258529;28;20068;-56
2023/12/18 01:21:03;;;;;;;13.65;8.10;;;;;;;5.41;100.00;102327.31;8219414;28;20038;-55
2023/12/18 01:25:04;;;;;;;15.00;8.10;;;;;;;5.38;100.00;102327.44;8218975;28;20045;-54
2023/12/18 01:29:05;;;;;;;17.40;8.05;;;;;;;5.53;100.00;102334.84;8218827;28;20107;-55
2023/12/18 01:33:05;;;;;;;15.95;8.27;;;;;;;5.54;100.00;102320.50;8247162;28;20121;-56
2023/12/18 01:37:06;;;;;;;15.05;7.93;;;;;;;5.47;100.00;102329.75;8226045;28;20038;-56
2023/12/18 01:41:06;;;;;;;11.23;6.95;;;;;;;5.25;100.00;102323.53;8221857;28;20436;-55
2023/12/18 01:45:07;;;;;;;13.00;7.60;;;;;;;5.38;100.00;102324.75;8215093;28;20042;-54
2023/12/18 01:49:08;;;;;;;14.15;7.30;;;;;;;5.31;100.00;102332.19;8221411;28;20533;-54
2023/12/18 01:53:09;;;;;;;13.77;7.43;;;;;;;4.70;100.00;102340.06;8173376;28;20118;-54
2023/12/18 01:57:11;;;;;;;13.40;7.38;;;;;;;4.58;100.00;102335.16;8192494;28;20042;-54
2023/12/18 02:01:13;;;;;;;20.40;8.35;;;;;;;4.68;100.00;102325.84;8191648;28;20516;-55
2023/12/18 02:05:14;;;;;;;14.85;7.28;;;;;;;5.14;100.00;102326.66;8221555;28;20416;-53
2023/12/18 02:09:15;;;;;;;17.48;8.85;;;;;;;5.11;100.00;102328.56;8175348;28;20273;-51
2023/12/18 02:13:16;;;;;;;15.27;8.15;;;;;;;5.08;100.00;102331.38;8207494;28;20048;-55
2023/12/18 02:17:16;;;;;;;14.63;7.13;;;;;;;4.73;100.00;102330.06;8216757;28;20046;-55
2023/12/18 02:21:19;;;;;;;18.13;7.35;;;;;;;4.68;100.00;102325.84;8218748;28;20046;-55
2023/12/18 02:25:21;;;;;;;15.77;8.38;;;;;;;4.77;100.00;102330.84;8199721;28;20054;-55
2023/12/18 02:29:21;;;;;;;43.85;9.98;;;;;;;5.00;100.00;102338.88;8189155;28;20168;-55
2023/12/18 02:33:21;;;;;;;17.35;8.80;;;;;;;4.54;100.00;102333.53;8185474;28;20034;-54
2023/12/18 02:37:23;;;;;;;18.58;7.78;;;;;;;4.43;100.00;102330.38;8190949;28;20634;-55
2023/12/18 02:41:23;;;;;;;20.45;10.52;;;;;;;4.50;100.00;102337.25;8186814;28;20264;-54
2023/12/18 02:45:24;;;;;;;25.80;11.45;;;;;;;4.67;100.00;102329.47;8184786;28;20670;-53
2023/12/18 02:49:24;;;;;;;23.42;11.57;;;;;;;4.95;100.00;102328.31;8185525;28;20751;-55
2023/12/18 02:53:24;;;;;;;20.60;8.77;;;;;;;4.66;100.00;102328.56;8235121;28;20490;-57
2023/12/18 02:57:25;;;;;;;14.70;8.25;;;;;;;4.73;100.00;102318.50;8269578;28;20077;-55
2023/12/18 03:01:25;;;;;;;19.73;8.43;;;;;;;4.83;100.00;102322.56;8272196;28;20042;-55
2023/12/18 03:05:26;;;;;;;17.88;8.60;;;;;;;5.00;100.00;102341.53;8275167;28;20094;-55
2023/12/18 03:09:26;;;;;;;16.33;8.35;;;;;;;4.53;100.00;102342.50;8273645;28;20128;-56
2023/12/18 03:13:27;;;;;;;21.95;8.00;;;;;;;4.25;100.00;102337.31;8272411;28;20397;-55
2023/12/18 03:17:27;;;;;;;16.88;8.68;;;;;;;4.36;100.00;102334.22;8271765;28;20042;-56
2023/12/18 03:21:28;;;;;;;13.70;7.63;;;;;;;4.18;100.00;102356.31;8275286;28;20042;-55
2023/12/18 03:25:28;;;;;;;22.40;8.68;;;;;;;4.37;100.00;102346.69;8269926;28;20045;-55
2023/12/18 03:29:29;;;;;;;13.57;6.93;;;;;;;4.13;100.00;102342.22;8270564;28;20049;-57
2023/12/18 03:33:29;;;;;;;14.82;8.85;;;;;;;4.40;100.00;102341.22;8216974;28;20535;-57
2023/12/18 03:37:29;;;;;;;26.13;12.30;;;;;;;4.30;100.00;102339.81;8255627;28;20113;-54
2023/12/18 03:41:30;;;;;;;14.48;8.35;;;;;;;3.99;100.00;102319.50;8226413;28;20289;-56
2023/12/18 03:45:30;;;;;;;19.30;9.02;;;;;;;4.24;100.00;102323.97;8226269;28;20511;-55
2023/12/18 03:49:31;;;;;;;16.58;8.05;;;;;;;4.31;100.00;102312.97;8223690;28;20053;-55
2023/12/18 03:53:31;;;;;;;19.02;8.75;;;;;;;4.15;100.00;102318.94;8238976;28;20049;-56
2023/12/18 03:57:32;;;;;;;14.48;7.47;;;;;;;3.98;100.00;102312.41;8221567;28;20090;-56
2023/12/18 04:01:33;;;;;;;17.38;9.05;;;;;;;3.90;100.00;102305.56;8205613;28;20045;-56
2023/12/18 04:05:34;;;;;;;16.40;8.43;;;;;;;3.93;100.00;102303.66;8182662;28;20034;-53
2023/12/18 04:09:37;;;;;;;15.80;7.68;;;;;;;3.91;100.00;102305.50;8182078;28;20535;-56
2023/12/18 04:13:40;;;;;;;17.13;8.65;;;;;;;3.98;100.00;102306.19;8142063;28;20181;-54
2023/12/18 04:17:40;;;;;;;16.13;7.97;;;;;;;3.79;100.00;102300.59;8179770;28;20193;-55
2023/12/18 04:21:41;;;;;;;13.15;7.75;;;;;;;4.01;100.00;102293.56;8184091;28;20046;-55
2023/12/18 04:25:41;;;;;;;19.88;8.18;;;;;;;3.64;100.00;102287.78;8222249;28;20475;-54
2023/12/18 04:29:42;;;;;;;16.48;7.90;;;;;;;3.65;100.00;102269.94;8241997;28;20045;-55
2023/12/18 04:33:42;;;;;;;14.63;8.38;;;;;;;3.98;100.00;102266.94;8294958;28;20124;-57
2023/12/18 04:37:43;;;;;;;29.42;10.13;;;;;;;3.89;100.00;102269.94;8276240;28;20088;-55
2023/12/18 04:41:44;;;;;;;22.40;9.52;;;;;;;4.03;100.00;102267.63;8277765;28;20087;-55
2023/12/18 04:45:45;;;;;;;18.52;9.13;;;;;;;4.32;100.00;102268.31;8277839;28;20511;-57
2023/12/18 04:49:45;;;;;;;22.92;7.90;;;;;;;3.77;100.00;102265.03;8276577;28;20461;-57
2023/12/18 04:53:46;;;;;;;18.25;9.00;;;;;;;4.04;100.00;102257.78;8276854;28;20042;-57
2023/12/18 04:57:46;;;;;;;13.77;6.95;;;;;;;4.12;100.00;102276.25;8275378;28;20042;-57
2023/12/18 05:01:47;;;;;;;16.08;8.20;;;;;;;3.70;100.00;102268.84;8274300;28;20042;-57
2023/12/18 05:05:48;;;;;;;16.38;8.00;;;;;;;3.50;100.00;102270.47;8276136;28;20432;-57
2023/12/18 05:09:48;;;;;;;18.38;8.10;;;;;;;3.48;100.00;102267.84;8278457;28;20039;-57
2023/12/18 05:13:49;;;;;;;18.92;8.88;;;;;;;3.72;100.00;102269.66;8275314;28;20125;-55
2023/12/18 05:17:49;;;;;;;17.27;8.55;;;;;;;3.88;100.00;102273.53;8276056;28;20041;-56
2023/12/18 05:21:50;;;;;;;15.52;9.48;;;;;;;3.82;100.00;102279.09;8275346;28;20042;-55
2023/12/18 05:25:51;;;;;;;18.08;8.48;;;;;;;3.86;100.00;102291.44;8237499;28;20042;-55
2023/12/18 05:29:51;;;;;;;14.27;7.75;;;;;;;3.77;100.00;102297.13;8220334;28;20154;-54
2023/12/18 05:33:52;;;;;;;14.40;7.60;;;;;;;3.63;100.00;102299.41;8218114;28;20042;-55
2023/12/18 05:37:52;;;;;;;15.02;7.70;;;;;;;3.25;100.00;102306.97;8223561;28;20245;-56
2023/12/18 05:41:53;;;;;;;17.83;7.80;;;;;;;2.86;100.00;102298.44;8220583;28;20770;-56
2023/12/18 05:45:53;;;;;;;18.25;9.00;;;;;;;3.02;100.00;102299.69;8219825;28;20050;-55
2023/12/18 05:49:54;;;;;;;15.73;8.00;;;;;;;3.05;100.00;102294.25;8219593;28;20681;-56
2023/12/18 05:53:54;;;;;;;22.58;8.88;;;;;;;3.15;100.00;102286.84;8268393;28;20089;-55
2023/12/18 05:57:55;;;;;;;20.65;10.27;;;;;;;3.32;100.00;102290.69;8276488;28;20038;-55
2023/12/18 06:01:55;;;;;;;22.83;10.88;;;;;;;3.31;100.00;102299.63;8272773;28;20034;-55
2023/12/18 06:05:56;;;;;;;24.88;11.43;;;;;;;3.64;100.00;102290.47;8271478;28;20396;-56
2023/12/18 06:09:56;;;;;;;18.50;9.80;;;;;;;3.27;100.00;102289.09;8270837;28;20054;-55
2023/12/18 06:13:57;;;;;;;20.02;10.35;;;;;;;3.29;100.00;102287.22;8273189;28;20113;-54
2023/12/18 06:17:58;;;;;;;20.27;10.55;;;;;;;3.34;100.00;102299.53;8276224;28;20060;-54
2023/12/18 06:21:58;;;;;;;21.65;10.68;;;;;;;3.40;100.00;102291.31;8272461;28;20061;-55
2023/12/18 06:25:59;;;;;;;21.70;10.32;;;;;;;3.31;100.00;102304.97;8272479;28;20388;-55
2023/12/18 06:30:00;;;;;;;21.45;10.32;;;;;;;3.09;100.00;102309.28;8270284;28;20141;-55
2023/12/18 06:34:01;;;;;;;22.20;10.43;;;;;;;2.92;100.00;102302.72;8261859;28;20034;-54
2023/12/18 06:38:02;;;;;;;20.23;10.68;;;;;;;2.94;100.00;102295.53;8251259;28;20042;-55
2023/12/18 06:42:03;;;;;;;16.17;8.57;;;;;;;2.86;100.00;102293.09;8270164;28;20116;-55
2023/12/18 06:46:04;;;;;;;17.08;8.15;;;;;;;2.98;100.00;102295.38;8274754;28;20145;-56
2023/12/18 06:50:05;;;;;;;23.92;9.82;;;;;;;2.95;100.00;102294.59;8273266;28;20519;-54
2023/12/18 06:54:06;;;;;;;18.30;8.25;;;;;;;2.92;100.00;102308.94;8255504;28;20046;-54
2023/12/18 06:58:06;;;;;;;17.23;7.95;;;;;;;2.86;100.00;102303.78;8241853;28;20045;-55
2023/12/18 07:02:06;;;;;;;21.63;10.32;;;;;;;2.89;100.00;102302.81;8218209;28;20042;-55
2023/12/18 07:06:07;;;;;;;26.63;10.60;;;;;;;2.77;100.00;102309.41;8221867;28;20168;-56
2023/12/18 07:10:08;;;;;;;18.33;9.13;;;;;;;2.95;100.00;102319.53;8221464;28;20052;-56
2023/12/18 07:14:08;;;;;;;24.23;10.95;;;;;;;3.09;100.00;102328.00;8222245;28;20443;-54
2023/12/18 07:18:09;;;;;;;17.50;10.30;;;;;;;2.54;100.00;102330.63;8223833;28;20323;-56
2023/12/18 07:22:09;;;;;;;15.32;8.27;;;;;;;2.60;100.00;102349.13;8222473;28;20341;-55
2023/12/18 07:26:12;;;;;;;16.02;8.93;;;;;;;2.66;100.00;102350.72;8251398;28;20046;-56
2023/12/18 07:30:13;;;;;;;20.13;8.05;;;;;;;2.70;100.00;102353.25;8275320;28;20415;-55
2023/12/18 07:34:14;;;;;;;18.70;9.20;;;;;;;2.71;100.00;102357.66;8283511;28;20068;-55
2023/12/18 07:38:14;;;;;;;20.17;8.65;;;;;;;2.53;100.00;102352.88;8272657;28;20034;-56
2023/12/18 07:42:15;;;;;;;24.35;9.23;;;;;;;2.58;100.00;102344.72;8279846;28;20038;-56
2023/12/18 07:46:18;;;;;;;15.77;8.80;;;;;;;2.76;100.00;102352.19;8278750;28;20038;-55
2023/12/18 07:50:19;;;;;;;22.97;9.93;;;;;;;2.90;100.00;102358.84;8282651;28;20048;-56
2023/12/18 07:54:19;;;;;;;14.27;7.63;;;;;;;2.93;99.83;102364.09;8280580;28;20516;-55
2023/12/18 07:58:19;;;;;;;20.73;8.52;;;;;;;2.74;99.28;102384.28;8280996;28;20085;-54
2023/12/18 08:02:20;;;;;;;16.65;8.30;;;;;;;2.82;100.00;102376.94;8275735;28;20050;-56
2023/12/18 08:06:21;;;;;;;17.38;7.72;;;;;;;2.59;99.17;102368.72;8276047;28;20046;-55
2023/12/18 08:10:21;;;;;;;16.13;8.13;;;;;;;2.74;100.00;102364.75;8279116;28;20673;-55
2023/12/18 08:14:22;;;;;;;13.63;8.23;;;;;;;2.69;99.62;102369.31;8273889;28;20041;-55
2023/12/18 08:18:24;;;;;;;14.32;8.32;;;;;;;2.82;100.00;102366.25;8277651;28;20091;-55
2023/12/18 08:22:25;;;;;;;13.60;7.47;;;;;;;2.89;100.00;102367.81;8274907;28;20101;-56
2023/12/18 08:26:26;;;;;;;15.18;7.45;;;;;;;3.02;100.00;102369.16;8258287;28;20089;-56
2023/12/18 08:30:27;;;;;;;18.17;9.75;;;;;;;3.07;100.00;102361.88;8269066;28;20117;-56
2023/12/18 08:34:28;;;;;;;23.75;9.68;;;;;;;3.56;100.00;102367.41;8277781;28;20105;-54
2023/12/18 08:38:28;;;;;;;25.85;11.82;;;;;;;4.58;97.59;102367.31;8264002;28;20046;-55
2023/12/18 08:42:29;;;;;;;25.92;11.68;;;;;;;5.37;89.87;102373.97;8257083;28;20038;-56
2023/12/18 08:46:29;;;;;;;19.63;10.65;;;;;;;6.65;84.01;102369.22;8273387;28;20041;-55
2023/12/18 08:50:30;;;;;;;21.63;9.48;;;;;;;6.85;80.90;102371.88;8264035;28;20105;-55
2023/12/18 08:54:30;;;;;;;15.60;8.05;;;;;;;7.98;78.47;102364.41;8260330;28;20047;-54
2023/12/18 08:58:31;;;;;;;14.95;6.68;;;;;;;8.24;76.10;102359.50;8276294;28;20038;-55
2023/12/18 09:02:31;;;;;;;12.60;6.07;;;;;;;8.59;75.22;102361.19;8275156;28;20069;-54
2023/12/18 09:06:35;;;;;;;15.15;7.32;;;;;;;8.73;74.84;102350.53;8270688;28;20038;-54
2023/12/18 09:10:35;;;;;;;11.98;6.72;;;;;;;8.62;73.71;102348.41;8259094;28;20120;-55
2023/12/18 09:14:36;;;;;;;10.75;6.32;;;;;;;8.67;75.03;102334.69;8271824;28;20034;-55
2023/12/18 09:18:36;;;;;;;11.20;6.13;;;;;;;9.00;73.57;102347.16;8265610;28;20043;-55
2023/12/18 09:22:37;;;;;;;14.80;5.28;;;;;;;9.33;74.31;102339.00;8259783;28;20042;-55
2023/12/18 09:26:37;;;;;;;8.45;4.68;;;;;;;9.77;71.68;102326.44;8261629;28;20192;-54
2023/12/18 09:30:39;;;;;;;7.55;4.40;;;;;;;9.82;71.08;102327.03;8271632;28;20052;-52
2023/12/18 09:34:40;;;;;;;6.97;4.00;;;;;;;9.16;73.15;102330.97;8272728;28;20491;-54
2023/12/18 09:38:40;;;;;;;9.60;5.05;;;;;;;9.75;72.01;102325.66;8275357;28;20407;-55
2023/12/18 09:42:41;;;;;;;10.70;4.28;;;;;;;9.97;71.10;102315.31;8274894;28;20042;-52
2023/12/18 09:46:41;;;;;;;7.10;4.70;;;;;;;10.51;71.02;102303.81;8275366;28;20358;-56
2023/12/18 09:50:45;;;;;;;8.48;4.57;;;;;;;11.55;66.94;102305.91;8276636;28;20062;-57
2023/12/18 09:54:46;;;;;;;11.30;4.78;;;;;;;12.03;65.71;102292.72;8270816;28;20088;-57
2023/12/18 09:58:47;;;;;;;15.35;4.68;;;;;;;12.56;64.79;102289.81;8276912;28;20132;-57
2023/12/18 10:02:48;;;;;;;7.10;4.57;;;;;;;12.54;63.20;102289.06;8274349;28;20038;-56
2023/12/18 10:06:50;;;;;;;11.57;4.43;;;;;;;12.79;64.18;102289.00;8278581;28;20034;-56
2023/12/18 10:10:51;;;;;;;5.50;3.45;;;;;;;13.22;62.30;102290.34;8272500;28;20149;-57
2023/12/18 10:14:53;;;;;;;5.70;3.92;;;;;;;13.61;61.37;102288.19;8243094;28;20109;-57
2023/12/18 10:18:54;;;;;;;8.35;4.10;;;;;;;13.73;60.91;102284.53;8193432;28;20062;-54
2023/12/18 10:22:54;;;;;;;11.82;4.28;;;;;;;12.85;61.28;102272.28;8213572;28;20048;-55
2023/12/18 10:26:55;;;;;;;7.47;4.47;;;;;;;13.26;63.38;102275.53;8229556;28;20042;-56
2023/12/18 10:30:56;;;;;;;6.78;4.22;;;;;;;13.90;60.96;102269.63;8212896;28;20058;-56
2023/12/18 10:34:57;;;;;;;13.95;5.78;;;;;;;13.54;60.66;102261.59;8252414;28;20042;-55
2023/12/18 10:39:00;;;;;;;7.60;5.00;;;;;;;13.24;63.15;102266.66;8260407;28;20620;-54
2023/12/18 10:43:23;;;;;;;13.77;5.78;;;;;;;13.51;61.37;102261.84;8265912;28;20042;-55
2023/12/18 10:47:25;;;;;;;13.75;6.25;;;;;;;12.73;63.25;102268.63;8265363;28;20042;-55
2023/12/18 10:51:26;;;;;;;15.35;7.15;;;;;;;11.18;67.15;102271.44;8261161;28;20454;-54
2023/12/18 10:55:27;;;;;;;16.55;7.18;;;;;;;11.47;67.91;102255.97;8261188;28;20085;-55
2023/12/18 10:59:29;;;;;;;13.35;7.18;;;;;;;12.25;66.11;102263.13;8256846;28;20130;-54
2023/12/18 11:03:30;;;;;;;16.23;8.05;;;;;;;12.14;65.54;102263.03;8258393;28;20064;-56
2023/12/18 11:07:31;;;;;;;15.57;8.38;;;;;;;11.77;66.97;102265.59;8258565;28;20379;-56
2023/12/18 11:11:34;;;;;;;16.40;8.35;;;;;;;12.21;66.03;102251.66;8267801;28;20404;-56
2023/12/18 11:16:14;;;;;;;16.45;8.18;;;;;;;10.55;69.70;102256.69;8264868;28;20469;-58
2023/12/18 11:24:34;;;;;;;20.10;9.27;;;;;;;11.95;67.17;102243.63;8395168;27;20810;-54
2023/12/18 11:28:35;;;;;;;20.10;9.02;;;;;;;12.32;65.43;102243.59;8383503;27;20044;-53
2023/12/18 11:32:43;;;;;;;12.57;7.57;;;;;;;12.35;65.38;102235.22;8409273;27;20044;-56
2023/12/18 11:36:44;;;;;;;17.42;8.80;;;;;;;12.35;65.85;102246.09;8375684;28;20051;-56
2023/12/18 11:40:49;;;;;;;21.67;8.45;;;;;;;12.18;65.02;102221.16;8386813;28;20040;-55
2023/12/18 11:44:52;;;;;;;19.13;9.55;;;;;;;11.99;65.44;102226.16;8400074;27;20054;-53
2023/12/18 11:48:54;;;;;;;21.02;9.73;;;;;;;11.58;67.24;102216.31;8390809;28;20083;-53
2023/12/18 11:52:55;;;;;;;28.52;9.85;;;;;;;10.58;71.04;102205.09;8400070;28;20068;-55
2023/12/18 11:56:55;;;;;;;21.17;10.23;;;;;;;9.87;73.99;102206.06;8391503;27;20514;-53
2023/12/18 12:00:57;;;;;;;18.33;10.70;;;;;;;9.21;78.22;102210.16;8393861;27;20483;-55
2023/12/18 12:04:59;;;;;;;24.10;11.07;;;;;;;8.79;79.48;102208.16;8385459;28;20037;-55
2023/12/18 12:09:00;;;;;;;26.20;12.35;;;;;;;8.81;80.48;102216.16;8405403;27;20060;-55
2023/12/18 12:13:00;;;;;;;23.60;11.05;;;;;;;8.77;81.19;102201.94;8379597;28;20039;-55
2023/12/18 12:17:03;;;;;;;23.20;11.80;;;;;;;8.71;79.35;102193.34;8390755;27;20040;-54
2023/12/18 12:21:04;;;;;;;23.63;11.75;;;;;;;8.57;79.44;102186.03;8397841;27;20127;-54
2023/12/18 12:25:05;;;;;;;22.30;12.40;;;;;;;8.53;80.47;102187.16;8385163;27;20047;-53
2023/12/18 12:29:06;;;;;;;25.38;12.02;;;;;;;8.66;80.42;102180.13;8382022;28;20623;-54
2023/12/18 12:33:06;;;;;;;23.33;11.77;;;;;;;8.75;79.85;102168.81;8376627;27;20373;-54
2023/12/18 12:37:08;;;;;;;27.15;12.80;;;;;;;8.92;80.27;102170.53;8362440;28;20057;-53
2023/12/18 12:41:10;;;;;;;23.77;12.05;;;;;;;8.86;78.44;102166.38;8360965;28;20095;-53
2023/12/18 12:45:11;;;;;;;19.15;10.18;;;;;;;8.79;77.74;102169.50;8361054;28;20409;-53
2023/12/18 12:49:12;;;;;;;18.02;10.45;;;;;;;8.66;77.47;102168.47;8362241;28;20518;-53
2023/12/18 12:53:14;;;;;;;19.90;10.70;;;;;;;8.69;77.68;102169.16;8360249;28;20041;-54
2023/12/18 12:57:14;;;;;;;19.02;8.77;;;;;;;8.69;77.86;102168.31;8359943;28;20495;-54
2023/12/18 13:01:15;;;;;;;19.77;10.00;;;;;;;8.72;78.64;102178.91;8362039;28;20406;-52
2023/12/18 13:05:15;;;;;;;20.13;9.65;;;;;;;8.68;77.99;102172.81;8361888;28;20032;-52
2023/12/18 13:09:16;;;;;;;22.65;11.35;;;;;;;8.72;78.66;102157.34;8359317;28;20041;-54
2023/12/18 13:13:17;;;;;;;15.25;9.50;;;;;;;8.72;78.28;102162.75;8358625;28;20065;-53
2023/12/18 13:17:17;;;;;;;15.88;8.57;;;;;;;8.69;77.68;102146.75;8357918;28;20099;-53
2023/12/18 13:21:18;;;;;;;15.02;8.57;;;;;;;8.66;76.36;102146.91;8357915;28;20045;-53
2023/12/18 13:25:19;;;;;;;19.17;9.13;;;;;;;8.78;78.90;102138.97;8359840;28;20068;-54
2023/12/18 13:29:19;;;;;;;18.15;8.63;;;;;;;8.85;77.96;102123.31;8354858;28;20041;-54
2023/12/18 13:33:20;;;;;;;12.75;7.30;;;;;;;9.12;77.55;102114.41;8362646;28;20040;-55
2023/12/18 13:37:20;;;;;;;8.73;5.72;;;;;;;9.11;77.81;102111.81;8360291;28;20044;-54
2023/12/18 13:41:28;;;;;;;10.07;6.35;;;;;;;8.95;79.31;102108.31;8358006;28;20124;-55
2023/12/18 13:45:29;;;;;;;11.40;6.22;;;;;;;8.92;79.13;102105.78;8357250;28;20128;-54
2023/12/18 13:49:29;;;;;;;11.98;6.22;;;;;;;8.78;79.75;102097.66;8358093;28;20041;-54
2023/12/18 13:53:29;;;;;;;8.30;5.57;;;;;;;8.81;80.74;102097.47;8357492;28;20061;-54
2023/12/18 13:57:30;;;;;;;11.93;5.95;;;;;;;8.79;82.06;102104.78;8349779;28;20041;-56
2023/12/18 14:01:30;;;;;;;8.00;4.88;;;;;;;8.68;82.40;102112.63;8360357;28;20099;-53
2023/12/18 14:05:30;;;;;;;8.52;5.88;;;;;;;8.65;83.21;102108.28;8362263;28;20049;-53
2023/12/18 14:09:31;;;;;;;10.52;4.85;;;;;;;8.64;84.07;102103.00;8358978;28;20788;-54
2023/12/18 14:13:31;;;;;;;7.50;4.32;;;;;;;8.60;84.92;102099.59;8355843;28;20064;-53
2023/12/18 14:17:32;;;;;;;8.60;4.40;;;;;;;8.50;84.58;102097.50;8353597;28;20038;-53
2023/12/18 14:21:33;;;;;;;5.97;4.30;;;;;;;8.50;83.99;102100.22;8357881;28;20041;-54
2023/12/18 14:25:33;;;;;;;8.30;4.30;;;;;;;8.42;83.51;102094.41;8362569;28;20052;-53
2023/12/18 14:29:34;;;;;;;5.97;4.30;;;;;;;8.40;83.51;102082.84;8362665;28;20043;-52
2023/12/18 14:33:34;;;;;;;9.68;4.50;;;;;;;8.32;83.70;102077.03;8354126;28;20087;-53
2023/12/18 14:37:35;;;;;;;11.23;6.03;;;;;;;8.22;83.04;102075.78;8359475;28;20037;-52
2023/12/18 14:41:35;;;;;;;11.02;6.30;;;;;;;8.24;82.24;102090.06;8366677;28;20041;-52
2023/12/18 14:45:36;;;;;;;10.48;6.55;;;;;;;8.15;82.71;102079.78;8369561;28;20048;-54
2023/12/18 14:49:36;;;;;;;49.58;30.60;;;;;;;8.11;83.33;102083.63;8362965;28;20132;-57
2023/12/18 14:53:37;;;;;;;14.65;7.60;;;;;;;7.98;84.33;102078.91;8355572;28;20059;-55
2023/12/18 14:57:38;;;;;;;19.98;13.75;;;;;;;7.80;85.44;102074.56;8380721;28;20099;-55
2023/12/18 15:01:40;;;;;;;10.00;7.07;;;;;;;7.86;86.05;102071.53;8357581;28;20033;-55
2023/12/18 15:05:47;;;;;;;14.65;8.30;;;;;;;7.75;86.23;102071.25;8357379;28;20064;-56
2023/12/18 15:09:48;;;;;;;15.23;7.38;;;;;;;7.77;85.39;102053.19;8363801;28;20055;-55
2023/12/18 15:13:48;;;;;;;14.40;6.90;;;;;;;7.68;86.78;102050.13;8354133;28;20127;-55
2023/12/18 15:17:48;;;;;;;11.95;7.00;;;;;;;7.51;87.09;102045.66;8356953;28;20053;-55
2023/12/18 15:21:49;;;;;;;11.55;6.28;;;;;;;7.32;87.58;102033.31;8358067;28;20123;-54
2023/12/18 15:25:49;;;;;;;10.30;5.68;;;;;;;7.40;87.70;102045.41;8355860;28;20044;-55
2023/12/18 15:29:50;;;;;;;14.30;6.85;;;;;;;7.21;88.20;102063.50;8360052;28;20047;-55
2023/12/18 15:33:50;;;;;;;14.18;6.18;;;;;;;7.09;88.37;102057.88;8361365;28;20056;-55
2023/12/18 15:37:50;;;;;;;13.55;6.10;;;;;;;6.79;88.94;102049.59;8358838;28;20539;-55
2023/12/18 15:41:51;;;;;;;22.63;6.60;;;;;;;6.79;90.29;102038.84;8348189;28;20037;-56
2023/12/18 15:45:52;;;;;;;17.08;7.53;;;;;;;6.92;90.47;102039.94;8367709;28;20044;-55
2023/12/18 15:49:53;;;;;;;15.38;8.00;;;;;;;6.72;90.92;102040.13;8365302;28;20465;-56
2023/12/18 15:53:54;;;;;;;17.15;8.95;;;;;;;6.75;91.57;102069.53;8357188;28;20056;-55
2023/12/18 15:57:55;;;;;;;16.40;8.52;;;;;;;6.82;89.17;102089.75;8362652;28;20080;-56
2023/12/18 16:01:55;;;;;;;9.50;5.95;;;;;;;6.41;90.46;102082.94;8371891;28;20043;-55
2023/12/18 16:05:56;;;;;;;9.82;6.30;;;;;;;6.15;91.64;102074.38;8350049;28;20095;-57
2023/12/18 16:09:56;;;;;;;8.88;5.65;;;;;;;5.99;92.94;102076.94;8357620;28;20052;-55
2023/12/18 16:13:57;;;;;;;11.57;5.55;;;;;;;5.98;93.95;102059.13;8356345;28;20033;-56
2023/12/18 16:17:57;;;;;;;13.18;7.10;;;;;;;6.05;93.84;102055.19;8359538;28;20033;-56
2023/12/18 16:21:58;;;;;;;10.15;5.43;;;;;;;6.15;94.33;102045.72;8355636;28;20060;-54
2023/12/18 16:25:58;;;;;;;11.85;5.35;;;;;;;6.13;93.71;102031.50;8359319;28;20052;-55
2023/12/18 16:29:59;;;;;;;11.32;5.13;;;;;;;6.00;94.17;102035.72;8359958;28;20422;-55
2023/12/18 16:34:00;;;;;;;9.55;6.60;;;;;;;5.87;93.63;102061.44;8357859;28;20495;-55
2023/12/18 16:38:00;;;;;;;14.55;6.28;;;;;;;5.85;94.28;102047.22;8355467;28;20045;-57
2023/12/18 16:42:01;;;;;;;17.88;7.80;;;;;;;5.96;95.16;102034.16;8377950;28;20041;-55
2023/12/18 16:46:02;;;;;;;23.63;9.85;;;;;;;6.02;94.79;102036.53;8352966;28;20037;-55
2023/12/18 16:50:02;;;;;;;19.65;9.32;;;;;;;6.09;94.58;102037.97;8355713;28;20128;-54
2023/12/18 16:54:03;;;;;;;23.73;10.00;;;;;;;5.97;94.51;102046.63;8355659;28;20187;-56
2023/12/18 16:58:03;;;;;;;16.02;9.30;;;;;;;5.98;94.53;102034.97;8356093;28;20041;-58
2023/12/18 17:02:05;;;;;;;19.83;9.48;;;;;;;5.92;94.47;102016.47;8364181;28;20064;-57
2023/12/18 17:06:05;;;;;;;20.90;9.70;;;;;;;5.90;93.70;101996.88;8355659;28;20030;-57
2023/12/18 17:10:06;;;;;;;25.33;10.93;;;;;;;6.07;92.70;102022.91;8386440;28;20048;-57
2023/12/18 17:14:07;;;;;;;21.58;11.40;;;;;;;5.96;91.16;102007.31;8349981;28;20135;-57
2023/12/18 17:18:09;;;;;;;35.00;10.93;;;;;;;5.99;91.84;101994.63;8349294;28;20060;-56
2023/12/18 17:22:09;;;;;;;18.10;10.13;;;;;;;5.95;91.77;101994.84;8348083;28;20052;-56
2023/12/18 17:26:10;;;;;;;21.67;12.30;;;;;;;5.95;91.42;102005.59;8349793;28;20073;-55
2023/12/18 17:30:12;;;;;;;23.20;12.25;;;;;;;5.74;91.18;101990.47;8356387;28;20050;-56
2023/12/18 17:34:12;;;;;;;21.33;10.65;;;;;;;5.80;90.47;102030.44;8357735;28;20480;-57
2023/12/18 17:38:13;;;;;;;18.20;10.10;;;;;;;5.55;90.43;102016.47;8355431;28;20399;-55
2023/12/18 17:42:13;;;;;;;27.77;12.73;;;;;;;5.36;92.05;101994.09;8355291;28;20075;-54
2023/12/18 17:46:14;;;;;;;39.83;18.90;;;;;;;5.39;92.43;101985.91;8356895;28;20048;-55
2023/12/18 17:50:14;;;;;;;24.10;12.98;;;;;;;5.55;91.66;102008.41;8348416;28;20060;-54
2023/12/18 17:54:16;;;;;;;19.52;11.60;;;;;;;5.62;90.97;102017.91;8356836;28;20179;-54
2023/12/18 17:58:16;;;;;;;26.77;14.18;;;;;;;5.56;92.18;102012.81;8359236;28;20063;-54
2023/12/18 18:02:17;;;;;;;36.00;20.75;;;;;;;5.52;92.76;102009.41;8354539;28;20083;-55
2023/12/18 18:06:19;;;;;;;26.58;16.13;;;;;;;5.58;92.04;102010.94;8350788;28;20051;-54
2023/12/18 18:10:20;;;;;;;22.42;11.93;;;;;;;5.82;91.53;101989.19;8359200;28;20122;-57
2023/12/18 18:14:22;;;;;;;21.50;11.80;;;;;;;5.79;90.70;102009.91;8357771;28;20036;-57
2023/12/18 18:18:22;;;;;;;25.25;12.75;;;;;;;5.76;90.71;101994.81;8338348;28;20044;-56
2023/12/18 18:22:23;;;;;;;24.98;13.13;;;;;;;5.81;90.87;102029.50;8350790;28;20036;-55
2023/12/18 18:26:23;;;;;;;27.90;14.95;;;;;;;5.74;91.02;102033.41;8350167;28;20041;-56
2023/12/18 18:30:25;;;;;;;29.55;15.40;;;;;;;5.69;91.23;102019.34;8356113;28;20036;-55
2023/12/18 18:34:25;;;;;;;33.03;16.85;;;;;;;5.72;91.42;101992.34;8352505;28;20086;-56